首页
METAR-TAF:

METAR-TAF

机场 :

Hurlburt Field

Mary Esther, 佛罗里达州, 美国

纬度: 30-25N, 经度: 086-41W, 海拔: 12米

当前天气观测

该预报发布于42分钟前的18:56 UTC
风速6节,风向西转西南
温度 18°C
湿度 56%
气压 1015 hPa
能見度: 16.1公里
天空无云

METAR: KHRT 171856Z 24006KT 10SM CLR 18/09 A2996 RMK AO2A SLP145 T01840088 $

时间: 13:38 (19:38 UTC)

预报

该预报发布于1小时和38分钟前的18:00 UTC
预报有效从17日的 18点(UTC)到 18日的 24点(UTC)
风速4节,风向
能见度10公里或以上
少量云层高于25000英尺
成为
从 18日的 00点(UTC)到 18日的 01点(UTC)
风速6节,风向北转西北
能见度10公里或以上
多云层高于25000英尺
成为
从 18日的 11点(UTC)到 18日的 12点(UTC)
风速4节,风向北转西北
能见度10公里或以上
散云层高于2000英尺
散云层高于25000英尺

TAF: KHRT 171800Z 1718/1824 18004KT 9999 FEW250 QNH2999INS BECMG 1800/1801 33006KT 9999 BKN250 QNH2993INS BECMG 1811/1812 34004KT 9999 SCT020 SCT250 QNH2991INS TX19/1721Z TN08/1811Z

超过4000个机场的气象观测和天气预报(METAR&TAF报告)。

可查询的气象台以黄色和红色小点在地图上表示。

将鼠标移到小点上方,可查看气象台名称。

然后点击查看天气观测和预报。

如需切换地图:点击带黑十字的绿色按钮放大地图;点击带横线的绿色按钮缩小地图;或者点击绿色箭头查看邻近地区的地图。


METAR-TAF: